createdAt,value
2023-01-03T00:00:00.236Z,81.40
2023-01-03T00:05:00.336Z,81.58
2023-01-03T00:10:00.897Z,82.20
2023-01-03T00:15:00.497Z,81.63
2023-01-03T00:20:00.344Z,81.43
2023-01-03T00:25:00.898Z,81.64
2023-01-03T00:30:00.732Z,81.61
2023-01-03T00:35:04.970Z,81.65
2023-01-03T00:40:00.989Z,82.21
2023-01-03T00:45:00.311Z,81.58
2023-01-03T00:50:00.343Z,81.61
2023-01-03T00:55:00.345Z,81.56
2023-01-03T01:00:00.362Z,81.56
2023-01-03T01:05:00.513Z,81.78
2023-01-03T01:10:00.638Z,82.24
2023-01-03T01:20:00.505Z,82.20
2023-01-03T01:25:01.281Z,82.31
2023-01-03T01:30:00.497Z,82.45
2023-01-03T01:35:00.525Z,82.49
2023-01-03T01:40:00.689Z,82.56
2023-01-03T01:45:02.646Z,82.54
2023-01-03T01:50:12.950Z,82.53
2023-01-03T01:55:03.461Z,82.47
2023-01-03T02:00:00.709Z,82.43
2023-01-03T02:10:01.082Z,82.53
2023-01-03T02:15:11.214Z,82.61
2023-01-03T02:20:15.273Z,82.70
2023-01-03T02:25:20.416Z,82.63
2023-01-03T02:30:11.327Z,82.67
2023-01-03T02:35:08.034Z,82.72
2023-01-03T02:40:09.974Z,82.83
2023-01-03T02:50:04.494Z,83.35
2023-01-03T02:55:05.328Z,83.50
2023-01-03T03:00:08.711Z,83.54
2023-01-03T03:05:04.631Z,83.43
2023-01-03T03:10:10.619Z,83.12
2023-01-03T03:15:03.733Z,83.23
2023-01-03T03:20:10.640Z,83.41
2023-01-03T03:25:05.792Z,83.46
2023-01-03T03:30:04.740Z,83.54
2023-01-03T03:35:03.823Z,83.67
2023-01-03T03:40:11.436Z,83.51
2023-01-03T03:45:08.997Z,83.67
2023-01-03T03:50:06.628Z,83.85
2023-01-03T03:55:05.581Z,84.08
2023-01-03T04:00:04.943Z,84.13
2023-01-03T04:05:04.982Z,84.25
2023-01-03T04:10:01.162Z,83.75
2023-01-03T04:15:02.899Z,84.00
2023-01-03T04:20:00.904Z,83.98
2023-01-03T04:25:00.983Z,83.99
2023-01-03T04:30:01.046Z,84.03
2023-01-03T04:40:01.168Z,83.82
2023-01-03T04:45:00.997Z,84.11
2023-01-03T05:05:01.206Z,84.41
2023-01-03T05:10:01.104Z,84.25
2023-01-03T05:15:01.152Z,84.48
2023-01-03T05:20:10.995Z,84.36
2023-01-03T05:25:10.854Z,84.56
2023-01-03T05:35:01.160Z,84.35
2023-01-03T05:40:01.203Z,84.18
2023-01-03T05:45:01.100Z,84.66
2023-01-03T05:50:01.245Z,84.67
2023-01-03T05:55:01.149Z,84.66
2023-01-03T06:00:01.506Z,84.93
2023-01-03T06:05:01.175Z,85.09
2023-01-03T06:10:01.273Z,84.53
2023-01-03T06:15:01.432Z,85.07
2023-01-03T06:20:01.345Z,85.26
2023-01-03T06:25:01.415Z,85.37
2023-01-03T06:30:01.306Z,85.49
2023-01-03T06:35:01.233Z,85.57
2023-01-03T06:40:01.348Z,84.83
2023-01-03T06:45:11.222Z,85.47
2023-01-03T06:50:11.063Z,85.60
2023-01-03T06:55:01.935Z,85.80
2023-01-03T07:00:01.760Z,85.94
2023-01-03T07:05:01.377Z,85.99
2023-01-03T07:10:01.376Z,85.07
2023-01-03T07:15:01.358Z,86.15
2023-01-03T07:20:01.858Z,86.34
2023-01-03T07:25:01.380Z,86.69
2023-01-03T07:30:01.692Z,86.93
2023-01-03T07:35:01.496Z,87.10
2023-01-03T07:40:01.539Z,86.13
2023-01-03T07:45:01.676Z,87.16
2023-01-03T07:50:01.409Z,87.75
2023-01-03T07:55:01.530Z,88.02
2023-01-03T08:00:02.059Z,88.18
2023-01-03T08:05:01.616Z,88.26
2023-01-03T08:10:11.405Z,86.70
2023-01-03T08:15:01.517Z,88.07
2023-01-03T08:20:01.545Z,88.47
2023-01-03T08:25:01.508Z,88.49
2023-01-03T08:30:01.738Z,88.97
2023-01-03T08:35:02.686Z,89.66
2023-01-03T08:40:03.952Z,88.06
2023-01-03T08:45:05.648Z,89.39
2023-01-03T08:50:02.831Z,90.24
2023-01-03T08:55:01.639Z,90.11
2023-01-03T09:00:04.849Z,90.43
2023-01-03T09:05:01.691Z,89.85
2023-01-03T09:10:01.750Z,87.67
2023-01-03T09:15:01.877Z,88.89
2023-01-03T09:20:01.723Z,89.66
2023-01-03T09:25:02.171Z,89.15
2023-01-03T09:30:03.408Z,89.43
2023-01-03T09:35:01.787Z,90.11
2023-01-03T09:40:02.787Z,87.41
2023-01-03T09:45:02.363Z,89.11
2023-01-03T09:55:16.691Z,89.67
2023-01-03T10:00:12.818Z,89.24
2023-01-03T10:02:51.333Z,89.24
2023-01-03T10:05:16.065Z,89.83
2023-01-03T10:10:14.409Z,87.57
2023-01-03T10:15:18.677Z,89.34
2023-01-03T10:20:14.039Z,89.55
2023-01-03T10:25:10.492Z,89.66
2023-01-03T10:30:05.565Z,89.26
2023-01-03T10:35:15.499Z,89.78
2023-01-03T10:40:03.299Z,88.88
2023-01-03T10:45:04.960Z,89.62
2023-01-03T10:50:05.291Z,89.29
2023-01-03T10:55:10.215Z,89.94
2023-01-03T11:00:14.381Z,89.89
2023-01-03T11:05:11.350Z,90.22
2023-01-03T11:10:02.403Z,88.16
2023-01-03T11:15:14.595Z,90.04
2023-01-03T11:20:12.117Z,90.80
2023-01-03T11:30:16.090Z,90.83
2023-01-03T11:35:24.004Z,90.32
2023-01-03T11:40:12.525Z,89.06
2023-01-03T11:50:18.795Z,90.89
2023-01-03T12:00:10.582Z,90.44
2023-01-03T12:05:22.003Z,91.82
2023-01-03T12:10:10.881Z,89.37
2023-01-03T12:15:17.205Z,90.48
2023-01-03T12:20:11.236Z,91.15
2023-01-03T12:25:14.412Z,91.37
2023-01-03T12:30:06.934Z,91.13
2023-01-03T12:35:21.242Z,91.59
2023-01-03T12:40:12.228Z,88.97
2023-01-03T12:45:20.545Z,90.65
2023-01-03T12:50:14.344Z,91.39
2023-01-03T12:55:13.143Z,92.06
2023-01-03T13:00:19.857Z,91.59
2023-01-03T13:05:12.599Z,92.01
2023-01-03T13:10:06.331Z,90.26
2023-01-03T13:15:14.910Z,91.75
2023-01-03T13:20:22.290Z,91.64
2023-01-03T13:25:22.206Z,92.10
2023-01-03T13:30:13.795Z,92.36
2023-01-03T13:35:22.303Z,92.44
2023-01-03T13:40:22.277Z,89.96
2023-01-03T13:45:22.309Z,91.58
2023-01-03T13:50:02.778Z,91.98
2023-01-03T13:55:03.292Z,92.68
2023-01-03T14:00:13.301Z,92.12
2023-01-03T14:05:19.943Z,92.06
2023-01-03T14:10:20.537Z,89.84
2023-01-03T14:20:08.459Z,91.41
2023-01-03T14:25:03.807Z,91.63
2023-01-03T14:30:03.307Z,91.63
2023-01-03T14:35:03.170Z,91.63
2023-01-03T14:40:06.158Z,90.28
2023-01-03T14:45:05.744Z,91.70
2023-01-03T14:50:04.766Z,92.41
2023-01-03T14:55:05.914Z,91.98
2023-01-03T15:00:04.850Z,92.04
2023-01-03T15:05:05.286Z,92.23
2023-01-03T15:10:14.572Z,90.36
2023-01-03T15:15:07.912Z,91.85
2023-01-03T15:20:07.660Z,92.18
2023-01-03T15:40:04.690Z,91.97
2023-01-03T15:45:07.413Z,93.61
2023-01-03T15:50:05.878Z,92.72
2023-01-03T15:55:03.416Z,92.45
2023-01-03T16:00:07.281Z,91.88
2023-01-03T16:05:03.431Z,91.18
2023-01-03T16:15:05.315Z,91.29
2023-01-03T16:20:03.276Z,92.02
2023-01-03T16:25:04.683Z,92.15
2023-01-03T16:35:11.474Z,92.60
2023-01-03T16:40:04.373Z,91.13
2023-01-03T16:45:04.162Z,92.01
2023-01-03T16:50:06.813Z,92.10
2023-01-03T17:00:15.319Z,92.08
2023-01-03T17:10:04.582Z,90.58
2023-01-03T17:20:14.228Z,92.35
2023-01-03T17:25:03.465Z,92.77
2023-01-03T17:30:06.404Z,92.87
2023-01-03T17:35:04.324Z,93.00
2023-01-03T17:40:04.480Z,91.60
2023-01-03T17:50:04.133Z,93.13
2023-01-03T17:55:15.421Z,93.58
2023-01-03T18:00:15.390Z,93.62
2023-01-03T18:05:24.517Z,93.66
2023-01-03T18:10:05.569Z,91.39
2023-01-03T18:20:05.486Z,93.17
2023-01-03T18:25:04.336Z,93.45
2023-01-03T18:35:04.389Z,93.68
2023-01-03T18:40:07.282Z,91.92
2023-01-03T18:45:04.626Z,93.19
2023-01-03T18:50:04.549Z,94.11
2023-01-03T18:55:06.285Z,93.84
2023-01-03T19:00:05.908Z,94.38
2023-01-03T19:05:03.859Z,94.13
2023-01-03T19:10:13.587Z,92.52
2023-01-03T19:15:11.180Z,95.00
2023-01-03T19:20:05.170Z,95.54
2023-01-03T19:25:06.697Z,96.05
2023-01-03T19:35:13.556Z,96.19
2023-01-03T19:40:04.320Z,92.92
2023-01-03T19:50:16.884Z,96.56
2023-01-03T19:55:04.244Z,96.82
2023-01-03T20:00:04.337Z,97.09
2023-01-03T20:05:13.613Z,96.63
2023-01-03T20:10:04.495Z,93.68
2023-01-03T20:15:07.283Z,95.04
2023-01-03T20:20:04.505Z,95.09
2023-01-03T20:25:05.230Z,94.46
2023-01-03T20:30:12.670Z,94.56
2023-01-03T20:35:37.280Z,94.48
2023-01-03T20:40:04.477Z,92.32
2023-01-03T20:45:04.267Z,93.50
2023-01-03T20:50:04.887Z,94.56
2023-01-03T20:55:04.679Z,94.29
2023-01-03T21:00:04.538Z,94.08
2023-01-03T21:10:04.683Z,92.62
2023-01-03T21:15:05.634Z,94.02
2023-01-03T21:20:04.450Z,94.06
2023-01-03T21:25:06.397Z,94.38
2023-01-03T21:30:04.871Z,94.48
2023-01-03T21:35:04.534Z,95.03
2023-01-03T21:40:05.554Z,92.66
2023-01-03T21:45:06.557Z,94.42
2023-01-03T21:50:04.526Z,95.21
2023-01-03T21:55:04.667Z,95.20
2023-01-03T22:00:04.815Z,95.90
2023-01-03T22:05:04.408Z,96.21
2023-01-03T22:10:14.366Z,93.77
2023-01-03T22:15:04.507Z,95.18
2023-01-03T22:20:05.513Z,95.22
2023-01-03T22:25:05.331Z,96.02
2023-01-03T22:30:07.088Z,96.20
2023-01-03T22:35:04.319Z,96.04
2023-01-03T22:40:05.258Z,93.36
2023-01-03T22:45:04.844Z,95.34
2023-01-03T23:05:04.798Z,95.11
2023-01-03T23:10:04.670Z,93.64
2023-01-03T23:20:05.099Z,95.26
2023-01-03T23:30:05.590Z,95.48
2023-01-03T23:35:05.103Z,95.60
2023-01-03T23:40:05.992Z,93.06
2023-01-03T23:45:05.388Z,94.69
2023-01-03T23:50:05.367Z,95.09
2023-01-03T23:55:10.354Z,95.05
